Time;durP1;ratioP1;P1;durP2;ratioP2;P2;SDS_P1;SDS_P2;PMS_P1;PMS_P2;Temp;Humidity;BMP_temperature;BMP_pressure;BME280_temperature;BME280_humidity;BME280_pressure;Samples;Min_cycle;Max_cycle;Signal;HPM_P1;HPM_P2
2021/01/14 05:46:45;;;;;;;4.40;2.50;;;;;;;;;;6156647;22;884361;-83
2021/01/14 05:49:12;;;;;;;5.72;3.10;;;;;;;;;;6212137;23;20040;-83
2021/01/14 05:51:38;;;;;;;5.68;3.38;;;;;;;;;;6212030;23;20058;-83
2021/01/14 05:54:08;;;;;;;5.68;3.40;;;;;;;;;;6213424;23;20000;-83
2021/01/14 05:56:50;;;;;;;5.88;3.53;;;;;;;;;;6213711;23;20316;-83
2021/01/14 05:59:17;;;;;;;6.43;2.88;;;;;;;;;;6212161;23;20015;-82
2021/01/14 06:01:54;;;;;;;5.53;2.85;;;;;;;;;;6211815;23;20423;-84
2021/01/14 06:04:23;;;;;;;6.22;2.90;;;;;;;;;;6213275;23;20076;-84
2021/01/14 06:06:50;;;;;;;6.07;3.42;;;;;;;;;;6212127;23;20016;-83
2021/01/14 06:09:16;;;;;;;7.07;3.40;;;;;;;;;;6213322;23;20008;-84
2021/01/14 06:11:43;;;;;;;5.88;2.90;;;;;;;;;;6213988;23;20494;-84
2021/01/14 06:14:29;;;;;;;6.15;3.05;;;;;;;;;;6211427;23;20008;-83
2021/01/14 06:16:57;;;;;;;5.40;3.30;;;;;;;;;;6211711;23;20008;-83
2021/01/14 06:19:25;;;;;;;5.55;2.90;;;;;;;;;;6211713;23;20063;-84
2021/01/14 06:21:55;;;;;;;5.80;3.28;;;;;;;;;;6211913;23;20025;-83
2021/01/14 06:24:24;;;;;;;4.95;3.28;;;;;;;;;;6211328;23;20039;-83
2021/01/14 06:26:51;;;;;;;6.15;3.63;;;;;;;;;;6213415;23;20035;-83
2021/01/14 06:29:17;;;;;;;6.45;3.25;;;;;;;;;;6211812;23;20088;-83
2021/01/14 06:31:43;;;;;;;6.65;3.35;;;;;;;;;;6213376;23;20032;-84
2021/01/14 06:34:09;;;;;;;5.45;3.15;;;;;;;;;;6210946;23;20009;-83
2021/01/14 06:36:40;;;;;;;5.53;3.58;;;;;;;;;;6211311;23;20339;-84
2021/01/14 06:39:14;;;;;;;6.88;3.30;;;;;;;;;;6211786;23;20001;-83
2021/01/14 06:41:41;;;;;;;7.10;4.32;;;;;;;;;;6213451;23;20492;-83
2021/01/14 06:44:08;;;;;;;6.95;3.38;;;;;;;;;;6213598;23;20001;-82
2021/01/14 06:46:35;;;;;;;7.35;4.28;;;;;;;;;;6211589;23;20394;-83
2021/01/14 06:49:11;;;;;;;6.80;3.50;;;;;;;;;;6213754;23;20044;-83
2021/01/14 06:51:55;;;;;;;5.50;3.55;;;;;;;;;;6213504;23;20004;-83
2021/01/14 06:56:47;;;;;;;6.93;3.63;;;;;;;;;;5117989;27;20376;-82
2021/01/14 06:59:16;;;;;;;8.25;4.63;;;;;;;;;;5112721;28;20016;-82
2021/01/14 07:01:48;;;;;;;8.10;4.10;;;;;;;;;;5095774;28;20547;-82
2021/01/14 07:04:26;;;;;;;6.35;4.00;;;;;;;;;;5111170;28;20023;-82
2021/01/14 07:07:02;;;;;;;9.18;4.65;;;;;;;;;;5094992;28;20104;-83
2021/01/14 07:09:31;;;;;;;7.72;4.35;;;;;;;;;;5104484;28;20082;-82
2021/01/14 07:12:00;;;;;;;8.98;3.92;;;;;;;;;;5090176;28;20043;-83
2021/01/14 07:14:28;;;;;;;7.32;3.70;;;;;;;;;;5088261;28;20099;-83
2021/01/14 07:16:59;;;;;;;6.78;3.83;;;;;;;;;;5085542;28;20025;-83
2021/01/14 07:19:25;;;;;;;6.55;3.72;;;;;;;;;;5080285;28;20024;-82
2021/01/14 07:21:51;;;;;;;6.55;3.53;;;;;;;;;;5082497;28;20027;-81
2021/01/14 07:24:19;;;;;;;5.28;3.08;;;;;;;;;;5087124;28;20096;-82
2021/01/14 07:26:51;;;;;;;6.20;3.63;;;;;;;;;;5081285;28;20410;-82
2021/01/14 07:29:17;;;;;;;20.02;13.98;;;;;;;;;;5083193;28;20024;-83
2021/01/14 07:31:48;;;;;;;24.25;15.23;;;;;;;;;;5087134;28;20028;-82
2021/01/14 07:34:40;;;;;;;23.20;15.57;;;;;;;;;;5077908;28;20032;-83
2021/01/14 07:37:10;;;;;;;13.55;8.50;;;;;;;;;;5070918;28;20031;-82
2021/01/14 07:39:52;;;;;;;10.27;7.63;;;;;;;;;;5079761;28;20067;-83
2021/01/14 07:42:21;;;;;;;10.93;6.32;;;;;;;;;;5081336;28;20025;-82
2021/01/14 07:45:06;;;;;;;8.02;5.10;;;;;;;;;;5090343;28;20039;-83
2021/01/14 07:47:37;;;;;;;9.15;6.28;;;;;;;;;;5090539;28;20032;-83
2021/01/14 07:50:18;;;;;;;10.27;6.07;;;;;;;;;;5086558;28;20388;-83
2021/01/14 07:52:45;;;;;;;8.88;5.78;;;;;;;;;;5091981;28;20089;-82
2021/01/14 07:55:11;;;;;;;16.40;9.98;;;;;;;;;;5082532;28;20066;-82
2021/01/14 07:57:45;;;;;;;20.13;12.35;;;;;;;;;;5079838;28;20032;-83
2021/01/14 08:00:21;;;;;;;15.80;10.35;;;;;;;;;;5086308;28;20032;-83
2021/01/14 08:03:05;;;;;;;15.20;9.95;;;;;;;;;;5083811;28;20114;-83
2021/01/14 08:05:41;;;;;;;12.82;8.23;;;;;;;;;;5074214;28;20043;-83
2021/01/14 08:08:26;;;;;;;13.23;8.60;;;;;;;;;;5074892;28;20626;-83
2021/01/14 08:11:08;;;;;;;10.30;6.32;;;;;;;;;;5062200;28;20032;-83
2021/01/14 08:13:53;;;;;;;10.43;6.38;;;;;;;;;;5068934;28;20041;-83
2021/01/14 08:16:36;;;;;;;8.85;5.68;;;;;;;;;;5067929;28;20017;-83
2021/01/14 08:19:08;;;;;;;13.32;6.68;;;;;;;;;;5069451;28;20043;-83
2021/01/14 08:21:35;;;;;;;10.82;6.07;;;;;;;;;;5069805;28;20716;-83
2021/01/14 08:24:01;;;;;;;9.43;5.95;;;;;;;;;;5071604;28;20059;-80
2021/01/14 08:26:27;;;;;;;10.02;6.28;;;;;;;;;;5074453;28;20047;-81
2021/01/14 08:29:00;;;;;;;8.95;4.53;;;;;;;;;;5084840;28;20423;-81
2021/01/14 08:31:38;;;;;;;6.68;4.00;;;;;;;;;;5074663;28;20028;-84
2021/01/14 08:34:08;;;;;;;31.40;16.60;;;;;;;;;;5078638;28;20041;-83
2021/01/14 08:36:45;;;;;;;54.08;27.92;;;;;;;;;;5076352;28;20036;-83
2021/01/14 08:39:11;;;;;;;72.95;37.30;;;;;;;;;;5080811;28;20025;-82
2021/01/14 08:41:37;;;;;;;58.33;32.78;;;;;;;;;;5080395;28;20040;-83
2021/01/14 08:44:07;;;;;;;36.40;21.00;;;;;;;;;;5077466;28;20032;-81
2021/01/14 08:46:45;;;;;;;15.52;9.25;;;;;;;;;;5084402;28;20033;-82
2021/01/14 08:49:11;;;;;;;10.68;6.35;;;;;;;;;;5089630;28;20024;-84
2021/01/14 08:51:41;;;;;;;10.77;5.47;;;;;;;;;;5083107;28;20595;-84
2021/01/14 08:54:07;;;;;;;12.73;6.00;;;;;;;;;;5067332;28;20078;-84
2021/01/14 08:56:33;;;;;;;13.82;6.45;;;;;;;;;;5074415;28;20028;-84
2021/01/14 08:59:04;;;;;;;21.67;11.85;;;;;;;;;;5073479;28;20077;-84
2021/01/14 09:01:32;;;;;;;25.87;14.80;;;;;;;;;;5067099;28;20040;-85
2021/01/14 09:03:58;;;;;;;19.10;12.32;;;;;;;;;;5081089;28;20321;-85
2021/01/14 09:06:37;;;;;;;12.85;8.57;;;;;;;;;;5079099;28;20025;-84
2021/01/14 09:09:03;;;;;;;9.15;6.25;;;;;;;;;;5072623;28;20055;-84
2021/01/14 09:11:30;;;;;;;10.95;6.78;;;;;;;;;;5072611;28;20025;-84
2021/01/14 09:14:16;;;;;;;12.32;7.45;;;;;;;;;;5070501;28;20036;-84
2021/01/14 09:16:44;;;;;;;9.88;5.20;;;;;;;;;;5070322;28;20036;-84
2021/01/14 09:19:14;;;;;;;11.15;5.38;;;;;;;;;;5070327;28;20027;-84
2021/01/14 09:23:58;;;;;;;7.95;4.28;;;;;;;;;;5076981;27;20370;-85
2021/01/14 09:26:25;;;;;;;11.93;5.45;;;;;;;;;;5051557;28;20547;-85
2021/01/14 09:28:52;;;;;;;10.02;4.82;;;;;;;;;;5060013;28;20031;-83
2021/01/14 09:31:18;;;;;;;7.20;4.20;;;;;;;;;;5045935;28;20032;-82
2021/01/14 09:33:45;;;;;;;7.95;5.18;;;;;;;;;;5041678;28;20036;-83
2021/01/14 09:36:15;;;;;;;7.43;5.18;;;;;;;;;;5055175;28;20092;-83
2021/01/14 09:38:43;;;;;;;6.43;3.53;;;;;;;;;;5040024;28;20051;-82
2021/01/14 09:41:10;;;;;;;6.68;4.10;;;;;;;;;;5071385;28;20016;-82
2021/01/14 09:43:42;;;;;;;6.38;3.65;;;;;;;;;;5056964;28;20022;-82
2021/01/14 09:46:12;;;;;;;7.93;3.63;;;;;;;;;;5060521;28;20064;-82
2021/01/14 09:48:38;;;;;;;7.72;4.22;;;;;;;;;;5044390;28;20535;-83
2021/01/14 09:51:08;;;;;;;22.17;11.02;;;;;;;;;;5055787;28;20033;-83
2021/01/14 09:53:34;;;;;;;38.13;19.90;;;;;;;;;;5054123;28;20025;-83
2021/01/14 09:56:02;;;;;;;23.77;15.10;;;;;;;;;;5038006;28;20029;-82
2021/01/14 09:58:29;;;;;;;15.13;9.98;;;;;;;;;;5057797;28;20029;-82
2021/01/14 10:00:56;;;;;;;12.60;7.20;;;;;;;;;;5064687;28;20036;-83
2021/01/14 10:03:23;;;;;;;11.55;6.40;;;;;;;;;;5054170;28;20366;-83
2021/01/14 10:05:50;;;;;;;9.55;5.75;;;;;;;;;;5041327;28;20039;-83
2021/01/14 10:08:24;;;;;;;10.07;7.95;;;;;;;;;;5056321;28;20032;-82
2021/01/14 10:10:50;;;;;;;9.95;6.50;;;;;;;;;;5043507;28;20111;-83
2021/01/14 10:13:16;;;;;;;7.13;4.55;;;;;;;;;;5058488;28;20493;-81
2021/01/14 10:15:43;;;;;;;6.93;4.35;;;;;;;;;;5053805;28;20122;-82
2021/01/14 10:18:28;;;;;;;9.02;5.38;;;;;;;;;;5039427;28;20512;-82
2021/01/14 10:20:58;;;;;;;5.43;3.95;;;;;;;;;;5056090;28;20070;-83
2021/01/14 10:23:27;;;;;;;8.73;5.47;;;;;;;;;;5060826;28;20481;-82
2021/01/14 10:25:55;;;;;;;8.85;5.03;;;;;;;;;;5033778;28;20464;-82
2021/01/14 10:28:21;;;;;;;8.85;5.70;;;;;;;;;;5061948;28;20021;-82
2021/01/14 10:30:46;;;;;;;11.73;6.30;;;;;;;;;;5062169;28;20026;-82
2021/01/14 10:33:12;;;;;;;10.15;4.70;;;;;;;;;;5031774;28;20363;-82
2021/01/14 10:35:38;;;;;;;7.18;3.85;;;;;;;;;;5028701;28;20055;-82
2021/01/14 10:38:08;;;;;;;6.88;4.20;;;;;;;;;;5040883;28;20436;-83
2021/01/14 10:40:34;;;;;;;9.15;5.00;;;;;;;;;;5041343;28;20056;-82
2021/01/14 10:43:01;;;;;;;12.57;6.03;;;;;;;;;;5044077;28;20807;-83
2021/01/14 10:45:27;;;;;;;19.05;12.30;;;;;;;;;;5041151;28;20017;-82
2021/01/14 10:48:05;;;;;;;43.40;20.67;;;;;;;;;;5044219;28;20017;-82
2021/01/14 10:50:30;;;;;;;102.63;46.40;;;;;;;;;;5031905;28;20112;-83
2021/01/14 10:53:04;;;;;;;63.13;31.20;;;;;;;;;;5043588;28;20056;-82
2021/01/14 10:55:33;;;;;;;27.63;17.13;;;;;;;;;;5025346;28;20458;-83
2021/01/14 10:58:00;;;;;;;21.05;13.50;;;;;;;;;;5047963;28;20032;-82
2021/01/14 11:00:26;;;;;;;15.00;9.88;;;;;;;;;;5043674;28;20371;-83
2021/01/14 11:03:04;;;;;;;14.32;8.25;;;;;;;;;;5038012;28;20026;-83
2021/01/14 11:05:47;;;;;;;15.30;9.63;;;;;;;;;;5033465;28;20400;-83
2021/01/14 11:08:14;;;;;;;8.25;5.20;;;;;;;;;;5043078;28;20025;-83
2021/01/14 11:10:41;;;;;;;7.13;4.78;;;;;;;;;;5046680;28;20048;-83
2021/01/14 11:13:11;;;;;;;10.98;4.38;;;;;;;;;;5052988;28;20115;-84
2021/01/14 11:15:37;;;;;;;7.13;5.05;;;;;;;;;;5029458;28;20029;-85
2021/01/14 11:18:04;;;;;;;7.90;4.80;;;;;;;;;;5044925;28;20104;-84
2021/01/14 11:20:30;;;;;;;7.03;4.32;;;;;;;;;;5021190;28;20048;-84
2021/01/14 11:22:56;;;;;;;6.85;4.07;;;;;;;;;;5018388;28;20509;-82
2021/01/14 11:25:22;;;;;;;8.63;4.68;;;;;;;;;;5025856;28;20028;-83
2021/01/14 11:27:48;;;;;;;7.82;4.50;;;;;;;;;;5041290;28;20032;-82
2021/01/14 11:30:15;;;;;;;6.00;4.45;;;;;;;;;;5038571;28;20017;-84
2021/01/14 11:32:41;;;;;;;7.15;4.95;;;;;;;;;;5020359;28;20163;-84
2021/01/14 11:35:07;;;;;;;6.30;4.07;;;;;;;;;;5038332;28;20026;-83
2021/01/14 11:37:33;;;;;;;5.88;3.97;;;;;;;;;;5024848;28;20052;-83
2021/01/14 11:39:59;;;;;;;5.65;3.33;;;;;;;;;;5044124;28;20033;-83
2021/01/14 11:42:29;;;;;;;5.18;3.20;;;;;;;;;;5045491;28;20029;-84
2021/01/14 11:44:55;;;;;;;5.05;3.25;;;;;;;;;;5043688;28;20539;-83
2021/01/14 11:47:21;;;;;;;6.03;3.35;;;;;;;;;;5040333;28;20025;-84
2021/01/14 11:49:47;;;;;;;6.05;3.55;;;;;;;;;;5045409;28;20517;-83
2021/01/14 11:52:14;;;;;;;5.78;3.10;;;;;;;;;;5040158;28;20042;-83
2021/01/14 11:54:40;;;;;;;5.45;3.47;;;;;;;;;;5043271;28;20020;-83
2021/01/14 11:57:06;;;;;;;8.52;4.00;;;;;;;;;;5044623;28;20017;-83
2021/01/14 11:59:32;;;;;;;5.43;3.67;;;;;;;;;;5040972;28;20519;-81
2021/01/14 12:01:58;;;;;;;8.43;4.78;;;;;;;;;;5041886;28;20718;-81
2021/01/14 12:04:24;;;;;;;47.35;18.00;;;;;;;;;;5021222;28;20028;-81
2021/01/14 12:06:51;;;;;;;46.50;22.90;;;;;;;;;;5041644;28;20024;-81
2021/01/14 12:09:17;;;;;;;37.03;19.17;;;;;;;;;;5024086;28;20488;-81
2021/01/14 12:11:43;;;;;;;29.23;16.15;;;;;;;;;;5043551;28;20060;-82
2021/01/14 12:14:09;;;;;;;21.10;12.30;;;;;;;;;;5042472;28;20054;-82
2021/01/14 12:16:35;;;;;;;14.68;9.35;;;;;;;;;;5037854;28;20036;-79
2021/01/14 12:19:01;;;;;;;12.07;8.05;;;;;;;;;;5034158;28;20654;-81
2021/01/14 12:21:26;;;;;;;9.40;7.05;;;;;;;;;;5027448;28;20030;-82
2021/01/14 12:23:52;;;;;;;11.15;5.93;;;;;;;;;;5041856;28;20029;-81
2021/01/14 12:26:19;;;;;;;11.60;6.47;;;;;;;;;;5043520;28;20079;-81
2021/01/14 12:28:45;;;;;;;11.73;7.68;;;;;;;;;;5018751;28;20036;-80
2021/01/14 12:31:11;;;;;;;16.70;8.93;;;;;;;;;;5040889;28;20021;-81
2021/01/14 12:33:37;;;;;;;11.80;7.72;;;;;;;;;;5039580;28;20113;-80
2021/01/14 12:36:04;;;;;;;12.27;7.80;;;;;;;;;;5042477;28;20094;-81
2021/01/14 12:38:29;;;;;;;12.25;7.20;;;;;;;;;;5043990;28;20033;-81
2021/01/14 12:40:55;;;;;;;12.50;7.25;;;;;;;;;;5041180;28;20074;-81
2021/01/14 12:43:21;;;;;;;13.10;7.13;;;;;;;;;;5044580;28;20037;-81
2021/01/14 12:45:47;;;;;;;11.70;7.70;;;;;;;;;;5043735;28;20059;-81
2021/01/14 12:48:13;;;;;;;11.43;7.43;;;;;;;;;;5043223;28;20044;-81
2021/01/14 12:50:42;;;;;;;7.45;5.10;;;;;;;;;;5046719;28;20036;-81
2021/01/14 12:53:08;;;;;;;9.82;5.50;;;;;;;;;;5019976;28;20033;-80
2021/01/14 12:55:36;;;;;;;9.63;5.45;;;;;;;;;;5041530;28;20587;-80
2021/01/14 12:58:02;;;;;;;10.05;6.68;;;;;;;;;;5023316;28;20020;-79
2021/01/14 13:00:28;;;;;;;11.07;7.63;;;;;;;;;;5041272;28;20047;-79
2021/01/14 13:02:54;;;;;;;12.15;7.22;;;;;;;;;;5040282;28;20030;-80
2021/01/14 13:05:20;;;;;;;11.63;6.93;;;;;;;;;;5023959;28;20112;-83
2021/01/14 13:10:05;;;;;;;19.25;10.00;;;;;;;;;;5109317;27;20377;-80
2021/01/14 13:12:33;;;;;;;13.88;8.95;;;;;;;;;;5103536;28;20392;-81
2021/01/14 13:14:59;;;;;;;10.07;6.53;;;;;;;;;;5102175;28;20103;-81
2021/01/14 13:17:25;;;;;;;14.88;8.40;;;;;;;;;;5106052;28;20099;-80
2021/01/14 13:19:51;;;;;;;17.38;10.65;;;;;;;;;;5099695;28;20429;-80
2021/01/14 13:22:16;;;;;;;13.70;9.20;;;;;;;;;;5106624;28;20106;-80
2021/01/14 13:24:42;;;;;;;16.77;10.70;;;;;;;;;;5106760;28;20043;-80
2021/01/14 13:27:08;;;;;;;15.00;9.50;;;;;;;;;;5107754;28;20067;-81
2021/01/14 13:29:34;;;;;;;15.05;10.55;;;;;;;;;;5111160;28;20021;-80
2021/01/14 13:32:00;;;;;;;19.00;12.20;;;;;;;;;;5107759;28;20059;-80
2021/01/14 13:34:26;;;;;;;18.10;11.38;;;;;;;;;;5104439;28;20476;-80
2021/01/14 13:36:53;;;;;;;12.52;8.57;;;;;;;;;;5114534;28;20015;-82
2021/01/14 13:39:19;;;;;;;11.10;7.32;;;;;;;;;;5112430;28;20030;-80
2021/01/14 13:41:49;;;;;;;12.02;6.68;;;;;;;;;;5113012;28;20032;-81
2021/01/14 13:44:15;;;;;;;13.45;7.38;;;;;;;;;;5122574;28;20391;-83
2021/01/14 13:46:41;;;;;;;12.48;6.95;;;;;;;;;;5108645;28;20450;-81
2021/01/14 13:51:29;;;;;;;13.00;7.95;;;;;;;;;;5114818;27;20384;-82
2021/01/14 13:53:55;;;;;;;14.63;8.70;;;;;;;;;;5110596;28;20479;-81
2021/01/14 13:56:22;;;;;;;19.40;10.38;;;;;;;;;;5124818;28;20106;-81
2021/01/14 13:58:47;;;;;;;14.25;8.10;;;;;;;;;;5112720;28;20414;-80
2021/01/14 14:01:20;;;;;;;16.77;9.07;;;;;;;;;;5116644;28;20031;-81
2021/01/14 14:03:46;;;;;;;13.60;5.90;;;;;;;;;;5118973;28;20373;-81
2021/01/14 14:06:12;;;;;;;16.40;5.93;;;;;;;;;;5116386;28;20102;-81
2021/01/14 14:08:38;;;;;;;10.63;6.38;;;;;;;;;;5118961;28;20059;-81
2021/01/14 14:11:04;;;;;;;12.40;6.28;;;;;;;;;;5116954;28;20031;-81
2021/01/14 14:13:30;;;;;;;7.40;5.18;;;;;;;;;;5111910;28;20032;-81
2021/01/14 14:15:56;;;;;;;9.35;5.53;;;;;;;;;;5109935;28;20121;-81
2021/01/14 14:18:21;;;;;;;8.45;5.55;;;;;;;;;;5118841;28;20028;-82
2021/01/14 14:20:47;;;;;;;7.55;4.70;;;;;;;;;;5110445;28;20028;-81
2021/01/14 14:23:13;;;;;;;11.82;5.63;;;;;;;;;;5120630;28;20038;-81
2021/01/14 14:25:39;;;;;;;14.43;8.18;;;;;;;;;;5114782;28;20059;-81
2021/01/14 14:30:23;;;;;;;21.98;10.30;;;;;;;;;;5085979;27;20352;-81
2021/01/14 14:32:49;;;;;;;15.70;7.75;;;;;;;;;;5085254;28;20082;-81
2021/01/14 14:35:15;;;;;;;14.40;7.10;;;;;;;;;;5078991;28;20444;-81
2021/01/14 14:37:41;;;;;;;14.75;6.53;;;;;;;;;;5088450;28;20389;-82
2021/01/14 14:40:07;;;;;;;14.95;6.75;;;;;;;;;;5080972;28;20070;-81
2021/01/14 14:42:33;;;;;;;16.30;6.28;;;;;;;;;;5084858;28;20024;-81
2021/01/14 14:44:59;;;;;;;8.20;4.55;;;;;;;;;;5086216;28;20472;-82
2021/01/14 14:47:25;;;;;;;14.80;5.10;;;;;;;;;;5086142;28;20031;-82
2021/01/14 14:49:51;;;;;;;12.23;4.57;;;;;;;;;;5081082;28;20028;-81
2021/01/14 14:52:17;;;;;;;7.90;4.63;;;;;;;;;;5079012;28;20028;-81
2021/01/14 14:54:43;;;;;;;8.85;4.38;;;;;;;;;;5086469;28;20027;-81
2021/01/14 14:59:28;;;;;;;9.02;3.65;;;;;;;;;;5111116;27;20384;-83
2021/01/14 15:01:55;;;;;;;12.35;4.30;;;;;;;;;;5106444;28;20084;-81
2021/01/14 15:04:21;;;;;;;8.35;3.85;;;;;;;;;;5105799;28;20487;-83
2021/01/14 15:06:47;;;;;;;7.18;3.08;;;;;;;;;;5108266;28;20023;-81
2021/01/14 15:09:12;;;;;;;4.93;2.60;;;;;;;;;;5100371;28;20020;-82
2021/01/14 15:11:39;;;;;;;7.72;2.88;;;;;;;;;;5117970;28;20032;-83
2021/01/14 15:14:04;;;;;;;4.90;2.80;;;;;;;;;;5113742;28;20023;-83
2021/01/14 15:16:30;;;;;;;7.32;2.80;;;;;;;;;;5101702;28;20089;-83
2021/01/14 15:18:57;;;;;;;9.23;2.95;;;;;;;;;;5096747;28;20111;-82
2021/01/14 15:21:23;;;;;;;7.10;3.25;;;;;;;;;;5095540;28;20032;-83
2021/01/14 15:23:49;;;;;;;7.25;3.13;;;;;;;;;;5096081;28;20069;-83
2021/01/14 15:26:15;;;;;;;8.73;3.15;;;;;;;;;;5097905;28;20020;-83
2021/01/14 15:28:41;;;;;;;8.15;3.38;;;;;;;;;;5099642;28;20519;-84
2021/01/14 15:31:06;;;;;;;8.32;3.20;;;;;;;;;;5102302;28;20028;-83
2021/01/14 15:33:32;;;;;;;8.60;3.65;;;;;;;;;;5119519;28;20034;-83
2021/01/14 15:35:58;;;;;;;5.95;3.10;;;;;;;;;;5108735;28;20106;-82
2021/01/14 15:38:24;;;;;;;9.27;3.17;;;;;;;;;;5100957;28;20042;-82
2021/01/14 15:40:51;;;;;;;6.68;3.75;;;;;;;;;;5107613;28;20027;-82
2021/01/14 15:43:17;;;;;;;5.80;3.08;;;;;;;;;;5105618;28;20506;-81
2021/01/14 15:45:43;;;;;;;7.38;3.10;;;;;;;;;;5119826;28;20094;-80
2021/01/14 15:48:09;;;;;;;8.00;3.42;;;;;;;;;;5113618;28;20472;-81
2021/01/14 15:50:35;;;;;;;6.18;2.47;;;;;;;;;;5103265;28;20122;-81
2021/01/14 15:53:01;;;;;;;7.05;3.65;;;;;;;;;;5104211;28;20023;-81
2021/01/14 15:55:27;;;;;;;5.82;2.60;;;;;;;;;;5100119;28;20040;-80
2021/01/14 15:57:53;;;;;;;5.28;3.20;;;;;;;;;;5101586;28;20081;-80
2021/01/14 16:00:20;;;;;;;6.65;3.00;;;;;;;;;;5095885;28;20495;-80
2021/01/14 16:02:46;;;;;;;4.88;3.10;;;;;;;;;;5102710;28;20484;-82
2021/01/14 16:05:12;;;;;;;6.03;4.03;;;;;;;;;;5099884;28;20044;-80
2021/01/14 16:07:38;;;;;;;11.57;4.28;;;;;;;;;;5101668;28;20479;-80
2021/01/14 16:10:04;;;;;;;12.40;6.25;;;;;;;;;;5091555;28;20031;-81
2021/01/14 16:12:35;;;;;;;12.68;5.93;;;;;;;;;;5084707;28;20459;-81
2021/01/14 16:15:04;;;;;;;9.30;5.65;;;;;;;;;;5084702;28;20036;-81
2021/01/14 16:17:30;;;;;;;6.32;3.42;;;;;;;;;;5084315;28;20129;-80
2021/01/14 16:19:58;;;;;;;4.80;2.40;;;;;;;;;;5088075;28;20374;-81
2021/01/14 16:22:24;;;;;;;2.95;1.85;;;;;;;;;;5086943;28;20113;-82
2021/01/14 16:24:51;;;;;;;3.67;1.88;;;;;;;;;;5083997;28;20055;-83
2021/01/14 16:27:17;;;;;;;3.67;1.70;;;;;;;;;;5085993;28;20480;-83
2021/01/14 16:29:43;;;;;;;4.95;1.85;;;;;;;;;;5084503;28;20557;-82
2021/01/14 16:32:09;;;;;;;4.80;1.85;;;;;;;;;;5082821;28;20062;-83
2021/01/14 16:34:34;;;;;;;4.45;2.10;;;;;;;;;;5091457;28;20031;-84
2021/01/14 16:37:01;;;;;;;5.18;2.65;;;;;;;;;;5083615;28;20499;-83
2021/01/14 16:39:27;;;;;;;4.90;2.28;;;;;;;;;;5091262;28;20032;-83
2021/01/14 16:41:57;;;;;;;6.80;3.33;;;;;;;;;;5089292;28;20020;-83
2021/01/14 16:44:27;;;;;;;7.15;3.15;;;;;;;;;;5087325;28;20036;-83
2021/01/14 16:49:11;;;;;;;3.90;2.22;;;;;;;;;;5092774;28;20864;-83
2021/01/14 16:51:37;;;;;;;4.20;2.03;;;;;;;;;;5092102;28;20078;-82
2021/01/14 16:54:03;;;;;;;6.05;2.17;;;;;;;;;;5063691;28;20039;-82
2021/01/14 16:56:29;;;;;;;8.20;3.70;;;;;;;;;;5078321;28;20028;-82
2021/01/14 16:58:55;;;;;;;4.35;2.10;;;;;;;;;;5069807;28;20075;-83
2021/01/14 17:01:22;;;;;;;3.92;1.92;;;;;;;;;;5065280;28;20508;-83
2021/01/14 17:03:49;;;;;;;9.63;4.05;;;;;;;;;;5080360;28;20464;-83
2021/01/14 17:06:15;;;;;;;3.58;1.88;;;;;;;;;;5068348;28;20040;-82
2021/01/14 17:08:42;;;;;;;5.47;2.10;;;;;;;;;;5069211;28;20039;-83
2021/01/14 17:11:11;;;;;;;3.40;1.60;;;;;;;;;;5093797;28;20552;-83
2021/01/14 17:13:37;;;;;;;5.88;1.52;;;;;;;;;;5064578;28;20024;-82
2021/01/14 17:16:05;;;;;;;4.75;1.45;;;;;;;;;;5069591;28;20031;-82
2021/01/14 17:18:31;;;;;;;3.10;1.50;;;;;;;;;;5059468;28;20032;-82
2021/01/14 17:20:57;;;;;;;4.90;1.98;;;;;;;;;;5074264;28;20469;-82
2021/01/14 17:23:23;;;;;;;4.63;2.00;;;;;;;;;;5084913;28;20591;-83
2021/01/14 17:25:49;;;;;;;4.07;2.00;;;;;;;;;;5061243;28;20093;-82
2021/01/14 17:28:15;;;;;;;5.57;2.88;;;;;;;;;;5080228;28;20075;-81
2021/01/14 17:30:41;;;;;;;12.07;2.80;;;;;;;;;;5085042;28;20301;-83
2021/01/14 17:33:07;;;;;;;7.68;4.57;;;;;;;;;;5076015;28;20107;-82
2021/01/14 17:35:33;;;;;;;6.85;3.90;;;;;;;;;;5084685;28;20064;-82
2021/01/14 17:37:59;;;;;;;6.93;3.22;;;;;;;;;;5065356;28;20048;-82
2021/01/14 17:40:25;;;;;;;11.90;5.50;;;;;;;;;;5060650;28;20024;-82
2021/01/14 17:42:51;;;;;;;18.90;9.27;;;;;;;;;;5083968;28;20496;-83
2021/01/14 17:45:17;;;;;;;16.85;7.50;;;;;;;;;;5063177;28;20035;-83
2021/01/14 17:47:43;;;;;;;16.75;8.02;;;;;;;;;;5065557;28;20036;-82
2021/01/14 17:50:09;;;;;;;17.00;8.80;;;;;;;;;;5062012;28;20032;-83
2021/01/14 17:52:35;;;;;;;19.40;8.90;;;;;;;;;;5071427;28;20028;-83
2021/01/14 17:55:01;;;;;;;8.88;3.50;;;;;;;;;;5068575;28;20043;-83
2021/01/14 17:57:27;;;;;;;9.90;3.53;;;;;;;;;;5065329;28;20025;-83
2021/01/14 17:59:53;;;;;;;5.30;2.80;;;;;;;;;;5074894;28;20400;-83
2021/01/14 18:02:19;;;;;;;6.43;3.35;;;;;;;;;;5068073;28;20064;-82
2021/01/14 18:05:13;;;;;;;7.20;3.17;;;;;;;;;;5067534;23;20053;-81
2021/01/14 18:08:26;;;;;;;9.68;4.32;;;;;;;;;;5030788;28;20033;-80
2021/01/14 18:11:17;;;;;;;5.22;2.65;;;;;;;;;;5008628;28;20072;-80
2021/01/14 18:13:43;;;;;;;4.85;2.50;;;;;;;;;;5004682;28;20034;-80
2021/01/14 18:16:20;;;;;;;5.93;2.50;;;;;;;;;;5010062;28;20034;-80
2021/01/14 18:18:49;;;;;;;6.75;2.70;;;;;;;;;;5004818;28;20045;-80
2021/01/14 18:21:19;;;;;;;9.13;3.70;;;;;;;;;;5015075;28;20107;-80
2021/01/14 18:23:54;;;;;;;7.10;3.70;;;;;;;;;;5006431;28;20110;-80
2021/01/14 18:26:23;;;;;;;7.03;3.67;;;;;;;;;;5026463;28;20034;-80
2021/01/14 18:28:53;;;;;;;5.50;3.60;;;;;;;;;;5029812;28;20052;-81
2021/01/14 18:31:24;;;;;;;10.93;5.25;;;;;;;;;;5037221;28;20120;-80
2021/01/14 18:33:59;;;;;;;15.70;6.18;;;;;;;;;;5018787;28;20151;-80
2021/01/14 18:39:47;;;;;;;14.50;6.50;;;;;;;;;;5032039;28;20052;-80
2021/01/14 18:42:27;;;;;;;12.95;6.10;;;;;;;;;;5035646;28;20037;-80
2021/01/14 18:45:33;;;;;;;12.80;5.15;;;;;;;;;;5018625;28;20025;-80
2021/01/14 18:51:24;;;;;;;18.63;6.10;;;;;;;;;;5035541;28;20100;-80
2021/01/14 18:54:34;;;;;;;10.73;4.50;;;;;;;;;;5034287;28;20061;-80
2021/01/14 18:57:00;;;;;;;9.73;5.93;;;;;;;;;;5009608;28;20029;-80
2021/01/14 18:59:26;;;;;;;10.85;5.93;;;;;;;;;;5020374;28;20095;-80
2021/01/14 19:01:52;;;;;;;9.18;5.38;;;;;;;;;;5039151;28;20036;-80
2021/01/14 19:04:18;;;;;;;13.43;4.70;;;;;;;;;;5038334;28;20108;-80
2021/01/14 19:06:44;;;;;;;10.05;4.63;;;;;;;;;;5035780;28;20025;-80
2021/01/14 19:09:10;;;;;;;12.07;6.63;;;;;;;;;;5033689;28;20034;-80
2021/01/14 19:11:36;;;;;;;7.45;4.63;;;;;;;;;;5037956;28;20065;-80
2021/01/14 19:14:02;;;;;;;23.10;9.90;;;;;;;;;;5037960;28;20025;-81
2021/01/14 19:16:28;;;;;;;18.15;8.10;;;;;;;;;;5038022;28;20025;-80
2021/01/14 19:18:54;;;;;;;12.18;6.32;;;;;;;;;;5038515;28;20039;-80
2021/01/14 19:21:23;;;;;;;13.23;6.60;;;;;;;;;;5023552;28;20029;-80
2021/01/14 19:23:49;;;;;;;13.02;6.47;;;;;;;;;;5037271;28;20060;-80
2021/01/14 19:28:34;;;;;;;12.25;6.88;;;;;;;;;;5112735;27;20446;-80
2021/01/14 19:31:00;;;;;;;9.02;5.38;;;;;;;;;;5105481;28;20024;-79
2021/01/14 19:33:26;;;;;;;11.10;5.63;;;;;;;;;;5102310;28;20028;-80
2021/01/14 19:35:52;;;;;;;13.98;5.95;;;;;;;;;;5100136;28;20031;-80
2021/01/14 19:38:18;;;;;;;15.20;6.70;;;;;;;;;;5105576;28;20024;-80
2021/01/14 19:40:44;;;;;;;12.73;5.78;;;;;;;;;;5097800;28;20864;-80
2021/01/14 19:43:10;;;;;;;9.88;5.82;;;;;;;;;;5096189;28;20032;-80
2021/01/14 19:45:36;;;;;;;8.32;6.25;;;;;;;;;;5099411;28;20060;-80
2021/01/14 19:48:02;;;;;;;9.15;5.72;;;;;;;;;;5097245;28;20063;-80
2021/01/14 19:50:28;;;;;;;12.82;6.55;;;;;;;;;;5104227;28;20032;-80
2021/01/14 19:52:54;;;;;;;9.25;6.00;;;;;;;;;;5101262;28;20054;-80
2021/01/14 19:55:21;;;;;;;14.90;5.72;;;;;;;;;;5100623;28;20024;-80
2021/01/14 19:57:47;;;;;;;12.27;6.40;;;;;;;;;;5100220;28;20024;-80
2021/01/14 20:00:14;;;;;;;15.15;6.35;;;;;;;;;;5099308;28;20077;-79
2021/01/14 20:02:40;;;;;;;12.15;6.75;;;;;;;;;;5101962;28;20062;-78
2021/01/14 20:05:07;;;;;;;13.45;6.65;;;;;;;;;;5100750;28;20058;-79
2021/01/14 20:07:36;;;;;;;11.13;5.97;;;;;;;;;;5093646;28;20052;-79
2021/01/14 20:10:04;;;;;;;11.88;6.10;;;;;;;;;;5098524;28;20061;-78
2021/01/14 20:12:30;;;;;;;16.77;8.13;;;;;;;;;;5100345;28;20536;-78
2021/01/14 20:14:56;;;;;;;13.23;7.53;;;;;;;;;;5102522;28;20031;-79
2021/01/14 20:17:23;;;;;;;16.08;9.32;;;;;;;;;;5095748;28;20028;-79
2021/01/14 20:19:49;;;;;;;22.42;10.50;;;;;;;;;;5094320;28;20417;-79
2021/01/14 20:22:15;;;;;;;20.65;9.32;;;;;;;;;;5099888;28;20039;-79
2021/01/14 20:24:41;;;;;;;17.73;8.38;;;;;;;;;;5097551;28;20109;-78
2021/01/14 20:27:07;;;;;;;12.10;7.47;;;;;;;;;;5100983;28;20061;-78
2021/01/14 20:29:32;;;;;;;12.23;5.93;;;;;;;;;;5088999;28;20021;-78
2021/01/14 20:32:02;;;;;;;11.13;5.70;;;;;;;;;;5088701;28;20534;-77
2021/01/14 20:34:28;;;;;;;10.10;5.68;;;;;;;;;;5090100;28;20031;-78
2021/01/14 20:37:04;;;;;;;11.05;6.10;;;;;;;;;;5090052;28;20059;-78
2021/01/14 20:39:30;;;;;;;10.68;6.07;;;;;;;;;;5078528;28;20032;-79
2021/01/14 20:41:57;;;;;;;10.77;5.55;;;;;;;;;;5079452;28;20399;-78
2021/01/14 20:44:23;;;;;;;13.10;5.45;;;;;;;;;;5083268;28;20857;-78
2021/01/14 20:46:49;;;;;;;10.07;4.75;;;;;;;;;;5084145;28;20028;-79
2021/01/14 20:49:43;;;;;;;12.85;4.85;;;;;;;;;;5079277;28;20115;-78
2021/01/14 20:52:57;;;;;;;13.50;6.00;;;;;;;;;;5083033;28;20106;-79
2021/01/14 20:56:05;;;;;;;9.23;4.22;;;;;;;;;;5072988;28;20039;-79